Consulta les dades en temps real de l'estació municipal de Aiguafreda
| Hora UTC | 15:05 |
|---|---|
| Temperatura | 27.6 ºC |
| Sòl 15 cm | 28.6 ºC |
| Humitat | 59.4 % |
| Pressió | 1019.5 hPa |
| Pluja | 0.0 mm |
| Velocitat vent | 14.4 km/h |
| Direcció vent | SSE |
| Temperatura (ºC) | Humitat (%) | Pressió (hPa) | Velocitat vent (km/h) | Precipitació (mm) | |||||||||||||
|---|---|---|---|---|---|---|---|---|---|---|---|---|---|---|---|---|---|
| Hora UTC | Aire | Sòl 15 cm | Humitat | Pressió | Vel. | Dir. | Vel. Max | Dir. | Intent. màx 5 min. | ||||||||
| 00:05 | 19.7 | 18.6 | 87.1 | 1021.4 | 0.0 | NNE | 0.0 | N | 0.0 | ||||||||
| 00:10 | 19.8 | 18.7 | 87.1 | 1021.4 | 0.0 | NNE | 0.0 | N | 0.0 | ||||||||
| 00:15 | 19.8 | 18.8 | 87.0 | 1021.3 | 0.0 | NNE | 0.0 | N | 0.0 | ||||||||
| 00:20 | 19.8 | 18.9 | 87.0 | 1021.3 | 0.0 | NNE | 0.0 | SSE | 0.0 | ||||||||
| 00:25 | 19.9 | 19.0 | 86.7 | 1021.3 | 0.0 | NNE | 0.0 | SE | 0.0 | ||||||||
| 00:30 | 19.9 | 19.0 | 86.2 | 1021.3 | 0.0 | NNE | 0.0 | SSE | 0.0 | ||||||||
| 00:35 | 19.9 | 19.0 | 85.9 | 1021.3 | 0.0 | NNE | 0.0 | W | 0.0 | ||||||||
| 00:40 | 19.8 | 19.0 | 85.9 | 1021.3 | 0.0 | NNE | 0.0 | NW | 0.0 | ||||||||
| 00:45 | 19.9 | 19.2 | 85.7 | 1021.3 | 0.0 | NNE | 0.0 | SSE | 0.0 | ||||||||
| 00:50 | 20.0 | 19.3 | 85.3 | 1021.3 | 0.0 | NNE | 0.0 | SE | 0.0 | ||||||||
| 00:55 | 20.0 | 19.4 | 84.9 | 1021.3 | 0.0 | NNE | 0.0 | SE | 0.0 | ||||||||
| 01:00 | 20.1 | 19.5 | 84.6 | 1021.3 | 0.0 | NNE | 0.0 | SSE | 0.0 | ||||||||
| 01:05 | 20.1 | 19.4 | 84.6 | 1021.2 | 0.0 | NNE | 0.0 | S | 0.0 | ||||||||
| 01:10 | 20.1 | 19.4 | 84.7 | 1021.2 | 0.0 | NNE | 0.0 | SSE | 0.0 | ||||||||
| 01:15 | 20.1 | 19.4 | 84.7 | 1021.2 | 0.0 | NNE | 0.0 | SE | 0.0 | ||||||||
| 01:20 | 20.1 | 19.4 | 84.8 | 1021.2 | 0.0 | NNE | 0.0 | SE | 0.0 | ||||||||
| 01:25 | 20.1 | 19.4 | 85.0 | 1021.1 | 0.0 | NNE | 0.0 | NW | 0.0 | ||||||||
| 01:30 | 20.1 | 19.5 | 85.0 | 1021.2 | 0.0 | NNE | 0.0 | NW | 0.0 | ||||||||
| 01:35 | 20.2 | 19.6 | 84.8 | 1021.1 | 0.0 | NNE | 0.0 | NE | 0.0 | ||||||||
| 01:40 | 20.3 | 19.7 | 84.6 | 1021.2 | 0.0 | NNE | 0.0 | NE | 0.0 | ||||||||
| 01:45 | 20.3 | 19.8 | 84.4 | 1021.2 | 0.0 | NNE | 0.0 | NE | 0.0 | ||||||||
| 01:50 | 20.4 | 19.9 | 84.3 | 1021.2 | 0.0 | NNE | 0.0 | NE | 0.0 | ||||||||
| 01:55 | 20.5 | 19.9 | 84.0 | 1021.1 | 0.0 | NNE | 0.0 | NE | 0.0 | ||||||||
| 02:00 | 20.6 | 20.1 | 83.8 | 1021.2 | 0.0 | NNE | 0.0 | NE | 0.0 | ||||||||
| 02:05 | 20.7 | 20.2 | 83.4 | 1021.1 | 0.0 | NNE | 0.0 | NE | 0.0 | ||||||||
| 02:10 | 20.7 | 20.2 | 83.1 | 1021.1 | 0.0 | NNE | 0.0 | SW | 0.0 | ||||||||
| 02:15 | 20.8 | 20.2 | 82.9 | 1021.1 | 0.0 | NNE | 0.0 | W | 0.0 | ||||||||
| 02:20 | 20.8 | 20.2 | 82.7 | 1021.0 | 0.0 | NNE | 0.0 | W | 0.0 | ||||||||
| 02:25 | 20.8 | 20.1 | 82.7 | 1020.9 | 0.0 | NNE | 0.0 | W | 0.0 | ||||||||
| 02:30 | 20.7 | 20.0 | 83.0 | 1020.9 | 0.0 | NNE | 0.0 | WNW | 0.0 | ||||||||
| 02:35 | 20.6 | 19.8 | 83.5 | 1020.8 | 0.0 | NNE | 0.0 | WNW | 0.0 | ||||||||
| 02:40 | 20.5 | 19.7 | 83.8 | 1020.7 | 0.0 | NNE | 0.0 | WNW | 0.0 | ||||||||
| 02:45 | 20.4 | 19.6 | 84.2 | 1020.7 | 0.0 | NNE | 0.0 | WNW | 0.0 | ||||||||
| 02:50 | 20.3 | 19.4 | 84.5 | 1020.7 | 0.0 | NNE | 0.0 | WNW | 0.0 | ||||||||
| 02:55 | 20.2 | 19.2 | 84.7 | 1020.7 | 0.0 | NNE | 0.0 | ENE | 0.0 | ||||||||
| 03:00 | 20.1 | 19.1 | 85.1 | 1020.6 | 0.0 | NNE | 0.0 | SSE | 0.0 | ||||||||
| 03:05 | 20.0 | 18.9 | 85.8 | 1020.6 | 0.0 | NNE | 0.0 | N | 0.0 | ||||||||
| 03:10 | 19.9 | 18.7 | 86.0 | 1020.5 | 0.0 | NNE | 0.0 | N | 0.0 | ||||||||
| 03:15 | 19.8 | 18.6 | 86.3 | 1020.5 | 0.0 | NNE | 0.0 | N | 0.0 | ||||||||
| 03:20 | 19.6 | 18.4 | 87.0 | 1020.4 | 0.0 | NNE | 0.0 | N | 0.0 | ||||||||
| 03:25 | 19.6 | 18.3 | 87.5 | 1020.4 | 0.0 | NNE | 0.0 | N | 0.0 | ||||||||
| 03:30 | 19.5 | 18.1 | 87.8 | 1020.4 | 0.0 | NNE | 0.0 | N | 0.0 | ||||||||
| 03:35 | 19.4 | 18.0 | 88.0 | 1020.4 | 0.0 | NNE | 0.0 | N | 0.0 | ||||||||
| 03:40 | 19.3 | 17.9 | 88.4 | 1020.4 | 0.0 | NNE | 0.0 | N | 0.0 | ||||||||
| 03:45 | 19.3 | 17.9 | 88.6 | 1020.4 | 0.0 | NNE | 0.0 | N | 0.0 | ||||||||
| 03:50 | 19.2 | 17.8 | 88.9 | 1020.4 | 0.0 | NNE | 0.0 | NE | 0.0 | ||||||||
| 03:55 | 19.2 | 17.8 | 89.2 | 1020.4 | 0.0 | NNE | 0.0 | NE | 0.0 | ||||||||
| 04:00 | 19.1 | 17.8 | 89.3 | 1020.4 | 0.0 | NNE | 0.0 | NE | 0.0 | ||||||||
| 04:05 | 19.1 | 17.7 | 89.6 | 1020.4 | 0.0 | NNE | 0.0 | NE | 0.0 | ||||||||
| 04:10 | 19.1 | 17.7 | 89.6 | 1020.3 | 0.0 | NNE | 0.0 | NE | 0.0 | ||||||||
| 04:15 | 19.0 | 17.7 | 89.7 | 1020.3 | 0.0 | NNE | 0.0 | N | 0.0 | ||||||||
| 04:20 | 19.0 | 17.6 | 89.9 | 1020.3 | 0.0 | NNE | 0.0 | WNW | 0.0 | ||||||||
| 04:25 | 18.9 | 17.6 | 89.9 | 1020.3 | 0.0 | NNE | 0.0 | WNW | 0.0 | ||||||||
| 04:30 | 18.8 | 17.6 | 90.2 | 1020.3 | 0.0 | NNE | 0.0 | N | 0.0 | ||||||||
| 04:35 | 18.9 | 17.7 | 90.4 | 1020.2 | 0.0 | NNE | 0.0 | N | 0.0 | ||||||||
| 04:40 | 18.9 | 17.8 | 90.5 | 1020.2 | 0.0 | NNE | 0.0 | ESE | 0.0 | ||||||||
| 04:45 | 19.0 | 18.1 | 90.3 | 1020.2 | 0.0 | NNE | 0.0 | S | 0.0 | ||||||||
| 04:50 | 19.1 | 18.2 | 90.0 | 1020.2 | 0.0 | NNE | 0.0 | SSW | 0.0 | ||||||||
| 04:55 | 19.0 | 18.1 | 89.7 | 1020.2 | 0.0 | NNE | 0.0 | WSW | 0.0 | ||||||||
| 05:00 | 19.0 | 18.0 | 89.6 | 1020.2 | 0.0 | NNE | 0.0 | WSW | 0.0 | ||||||||
| 05:05 | 18.9 | 17.9 | 89.8 | 1020.2 | 0.0 | NNE | 0.0 | WSW | 0.0 | ||||||||
| 05:10 | 18.9 | 17.8 | 89.9 | 1020.2 | 0.0 | NNE | 0.0 | WSW | 0.0 | ||||||||
| 05:15 | 18.8 | 17.7 | 90.2 | 1020.2 | 0.0 | NNE | 0.0 | WSW | 0.0 | ||||||||
| 05:20 | 18.8 | 17.6 | 90.3 | 1020.2 | 0.0 | NNE | 0.0 | NW | 0.0 | ||||||||
| 05:25 | 18.8 | 17.6 | 90.3 | 1020.3 | 0.0 | NNE | 0.0 | N | 0.0 | ||||||||
| 05:30 | 18.8 | 17.6 | 90.5 | 1020.4 | 0.0 | NNE | 0.0 | N | 0.0 | ||||||||
| 05:35 | 18.8 | 17.7 | 90.6 | 1020.4 | 0.0 | NNE | 0.0 | N | 0.0 | ||||||||
| 05:40 | 18.8 | 17.8 | 90.5 | 1020.4 | 0.0 | NNE | 0.0 | N | 0.0 | ||||||||
| 05:45 | 18.8 | 17.9 | 90.6 | 1020.4 | 0.0 | NNE | 0.0 | N | 0.0 | ||||||||
| 05:50 | 18.9 | 18.0 | 90.7 | 1020.5 | 0.0 | NNE | 0.0 | N | 0.0 | ||||||||
| 05:55 | 19.0 | 18.0 | 90.6 | 1020.4 | 0.0 | NNE | 0.0 | NNW | 0.0 | ||||||||
| 06:00 | 19.0 | 18.1 | 90.4 | 1020.5 | 0.0 | NNE | 0.0 | NNW | 0.0 | ||||||||
| 06:05 | 19.0 | 18.1 | 90.3 | 1020.5 | 0.0 | NNE | 0.0 | NW | 0.0 | ||||||||
| 06:10 | 19.0 | 18.1 | 90.3 | 1020.5 | 0.0 | NNE | 0.0 | NE | 0.0 | ||||||||
| 06:15 | 19.0 | 18.1 | 90.3 | 1020.4 | 0.0 | NNE | 0.0 | ENE | 0.0 | ||||||||
| 06:20 | 19.1 | 18.1 | 90.3 | 1020.5 | 0.0 | NNE | 0.0 | ENE | 0.0 | ||||||||
| 06:25 | 19.1 | 18.2 | 90.3 | 1020.5 | 0.0 | NNE | 0.0 | ENE | 0.0 | ||||||||
| 06:30 | 19.2 | 18.3 | 90.2 | 1020.6 | 0.0 | NNE | 0.0 | ENE | 0.0 | ||||||||
| 06:35 | 19.2 | 18.5 | 90.0 | 1020.6 | 0.0 | NNE | 0.0 | ENE | 0.0 | ||||||||
| 06:40 | 19.4 | 18.6 | 89.9 | 1020.5 | 0.0 | NNE | 0.0 | ENE | 0.0 | ||||||||
| 06:45 | 19.5 | 18.9 | 89.8 | 1020.5 | 0.0 | NNE | 0.0 | ENE | 0.0 | ||||||||
| 06:50 | 19.7 | 19.0 | 89.4 | 1020.5 | 0.0 | NNE | 0.0 | ENE | 0.0 | ||||||||
| 06:55 | 19.8 | 19.2 | 88.8 | 1020.5 | 0.0 | NNE | 0.0 | ENE | 0.0 | ||||||||
| 07:00 | 20.1 | 19.5 | 88.4 | 1020.6 | 0.0 | NNE | 0.0 | S | 0.0 | ||||||||
| 07:05 | 20.4 | 19.8 | 87.4 | 1020.6 | 0.0 | NNE | 0.0 | SSE | 0.0 | ||||||||
| 07:10 | 20.6 | 20.1 | 86.1 | 1020.6 | 0.0 | NNE | 0.0 | SE | 0.0 | ||||||||
| 07:15 | 20.9 | 20.4 | 85.1 | 1020.6 | 0.0 | NNE | 0.0 | SE | 0.0 | ||||||||
| 07:20 | 21.2 | 20.6 | 84.0 | 1020.6 | 0.0 | NNE | 0.0 | S | 0.0 | ||||||||
| 07:25 | 21.6 | 20.9 | 82.6 | 1020.5 | 0.0 | NNE | 0.0 | SE | 0.0 | ||||||||
| 07:30 | 21.9 | 21.2 | 81.8 | 1020.3 | 0.0 | NNE | 0.0 | SW | 0.0 | ||||||||
| 07:35 | 22.4 | 21.5 | 80.3 | 1020.2 | 0.0 | NNE | 0.0 | SW | 0.0 | ||||||||
| 07:40 | 22.9 | 21.9 | 78.3 | 1020.2 | 0.0 | NNE | 0.0 | SSW | 0.0 | ||||||||
| 07:45 | 23.7 | 22.4 | 74.3 | 1020.2 | 0.0 | NNE | 0.0 | NW | 0.0 | ||||||||
| 07:50 | 24.7 | 22.9 | 70.5 | 1020.2 | 0.0 | NNE | 0.0 | WNW | 0.0 | ||||||||
| 07:55 | 25.5 | 23.6 | 66.5 | 1020.2 | 0.0 | NNE | 0.0 | WNW | 0.0 | ||||||||
| 08:00 | 26.0 | 24.5 | 64.0 | 1020.2 | 0.0 | NNE | 0.0 | WSW | 0.0 | ||||||||
| 08:05 | 26.4 | 25.3 | 62.5 | 1020.2 | 0.0 | NNE | 0.0 | SSW | 0.0 | ||||||||
| 08:10 | 26.4 | 25.8 | 61.9 | 1020.2 | 0.0 | NNE | 0.0 | WSW | 0.0 | ||||||||
| 08:15 | 26.5 | 26.1 | 61.7 | 1020.1 | 0.0 | NNE | 0.0 | SW | 0.0 | ||||||||
| 08:20 | 26.8 | 27.2 | 60.9 | 1020.2 | 0.0 | NNE | 0.0 | W | 0.0 | ||||||||
| 08:25 | 26.9 | 28.1 | 60.6 | 1020.2 | 0.0 | NNE | 0.0 | SSW | 0.0 | ||||||||
| 08:30 | 27.4 | 29.4 | 58.6 | 1020.2 | 0.0 | NNE | 0.0 | SW | 0.0 | ||||||||
| 08:35 | 27.7 | 30.2 | 57.2 | 1020.2 | 0.0 | NNE | 0.0 | WSW | 0.0 | ||||||||
| 08:40 | 27.8 | 31.5 | 57.1 | 1020.2 | 0.0 | NNE | 0.0 | SSE | 0.0 | ||||||||
| 08:45 | 28.1 | 31.7 | 55.9 | 1020.1 | 0.0 | NNE | 0.0 | WSW | 0.0 | ||||||||
| 08:50 | 28.1 | 31.5 | 55.8 | 1020.1 | 0.0 | NNE | 0.0 | W | 0.0 | ||||||||
| 08:55 | 27.9 | 32.2 | 56.4 | 1020.1 | 0.0 | NNE | 0.0 | N | 0.0 | ||||||||
| 09:00 | 28.1 | 32.9 | 56.1 | 1020.2 | 0.0 | NNE | 0.0 | NW | 0.0 | ||||||||
| 09:05 | 28.5 | 33.6 | 54.6 | 1020.3 | 2.1 | S | 6.1 | W | 0.0 | ||||||||
| 09:10 | 28.4 | 32.8 | 54.6 | 1020.2 | 4.3 | S | 8.8 | SSE | 0.0 | ||||||||
| 09:15 | 28.8 | 33.5 | 53.6 | 1020.3 | 1.8 | ENE | 6.1 | SE | 0.0 | ||||||||
| 09:20 | 29.1 | 33.8 | 52.2 | 1020.3 | 1.6 | E | 8.8 | S | 0.0 | ||||||||
| 09:25 | 29.0 | 33.4 | 50.6 | 1020.4 | 4.2 | S | 11.5 | S | 0.0 | ||||||||
| 09:30 | 29.2 | 33.9 | 50.5 | 1020.4 | 4.0 | S | 14.2 | ESE | 0.0 | ||||||||
| 09:35 | 29.0 | 32.8 | 52.3 | 1020.3 | 12.4 | S | 19.6 | SSE | 0.0 | ||||||||
| 09:40 | 28.6 | 32.4 | 53.5 | 1020.4 | 13.4 | SSE | 25.0 | SSE | 0.0 | ||||||||
| 09:45 | 28.4 | 32.2 | 54.1 | 1020.5 | 11.6 | SSE | 25.0 | SE | 0.0 | ||||||||
| 09:50 | 28.3 | 31.7 | 54.3 | 1020.6 | 12.4 | SSE | 19.6 | S | 0.0 | ||||||||
| 09:55 | 28.1 | 31.6 | 54.7 | 1020.6 | 15.0 | SSE | 27.7 | SSE | 0.0 | ||||||||
| 10:00 | 28.1 | 31.8 | 54.8 | 1020.7 | 12.7 | SSE | 25.0 | SE | 0.0 | ||||||||
| 10:05 | 28.3 | 31.9 | 54.2 | 1020.7 | 14.8 | SSE | 30.4 | SE | 0.0 | ||||||||
| 10:10 | 28.4 | 32.3 | 53.8 | 1020.7 | 13.0 | SSE | 25.0 | SSW | 0.0 | ||||||||
| 10:15 | 28.5 | 32.1 | 53.2 | 1020.7 | 12.3 | SSE | 22.3 | SSE | 0.0 | ||||||||
| 10:20 | 28.6 | 32.3 | 53.1 | 1020.8 | 12.5 | SSE | 22.3 | SSE | 0.0 | ||||||||
| 10:25 | 28.9 | 32.9 | 52.1 | 1020.7 | 13.7 | SE | 25.0 | SE | 0.0 | ||||||||
| 10:30 | 28.7 | 32.3 | 52.4 | 1020.7 | 13.3 | SE | 27.7 | SE | 0.0 | ||||||||
| 10:35 | 29.0 | 33.0 | 51.5 | 1020.7 | 10.5 | S | 22.3 | SSW | 0.0 | ||||||||
| 10:40 | 29.2 | 33.1 | 50.7 | 1020.6 | 11.5 | SE | 27.7 | SE | 0.0 | ||||||||
| 10:45 | 29.2 | 33.1 | 50.4 | 1020.7 | 11.6 | SSE | 30.4 | SE | 0.0 | ||||||||
| 10:50 | 29.2 | 33.1 | 49.9 | 1020.6 | 11.9 | SSE | 22.3 | SSE | 0.0 | ||||||||
| 10:55 | 29.2 | 33.0 | 49.8 | 1020.8 | 12.1 | SSE | 25.0 | S | 0.0 | ||||||||
| 11:00 | 29.2 | 33.6 | 49.0 | 1020.7 | 11.8 | S | 33.1 | ESE | 0.0 | ||||||||
| 11:05 | 29.4 | 33.1 | 47.9 | 1020.6 | 11.1 | SE | 22.3 | SE | 0.0 | ||||||||
| 11:10 | 29.6 | 34.0 | 47.5 | 1020.6 | 6.2 | SE | 22.3 | SE | 0.0 | ||||||||
| 11:15 | 29.7 | 33.2 | 46.6 | 1020.6 | 14.3 | SSE | 25.0 | SE | 0.0 | ||||||||
| 11:20 | 29.1 | 32.7 | 48.4 | 1020.7 | 14.4 | SE | 27.7 | SE | 0.0 | ||||||||
| 11:25 | 29.1 | 31.1 | 48.7 | 1020.7 | 12.4 | SSE | 22.3 | SSE | 0.0 | ||||||||
| 11:30 | 28.9 | 32.1 | 49.9 | 1020.8 | 11.5 | SE | 22.3 | SE | 0.0 | ||||||||
| 11:35 | 29.4 | 32.7 | 48.9 | 1020.7 | 11.3 | SSE | 25.0 | SSE | 0.0 | ||||||||
| 11:40 | 29.0 | 31.9 | 50.2 | 1020.7 | 10.4 | S | 22.3 | SSE | 0.0 | ||||||||
| 11:45 | 29.4 | 33.0 | 49.3 | 1020.6 | 12.7 | SSW | 25.0 | SW | 0.0 | ||||||||
| 11:50 | 29.4 | 33.4 | 49.2 | 1020.7 | 11.6 | S | 25.0 | SSE | 0.0 | ||||||||
| 11:55 | 29.4 | 33.6 | 49.7 | 1020.7 | 11.6 | S | 22.3 | SSE | 0.0 | ||||||||
| 12:00 | 29.6 | 33.7 | 48.8 | 1020.6 | 9.8 | S | 19.6 | S | 0.0 | ||||||||
| 12:05 | 29.8 | 34.5 | 48.0 | 1020.5 | 1.3 | SE | 22.3 | ESE | 0.0 | ||||||||
| 12:10 | 30.4 | 34.3 | 47.3 | 1020.4 | 11.0 | SE | 27.7 | ESE | 0.0 | ||||||||
| 12:15 | 29.7 | 31.8 | 49.7 | 1020.5 | 11.0 | SSE | 25.0 | S | 0.0 | ||||||||
| 12:20 | 28.9 | 30.6 | 51.4 | 1020.6 | 12.3 | SSE | 22.3 | SE | 0.0 | ||||||||
| 12:25 | 28.5 | 30.2 | 53.4 | 1020.6 | 12.5 | SE | 22.3 | SSE | 0.0 | ||||||||
| 12:30 | 28.2 | 29.5 | 54.4 | 1020.4 | 5.5 | SSE | 22.3 | S | 0.0 | ||||||||
| 12:35 | 28.0 | 29.8 | 55.4 | 1020.4 | 9.1 | SE | 22.3 | S | 0.0 | ||||||||
| 12:40 | 28.5 | 30.8 | 54.8 | 1020.4 | 9.9 | SSE | 22.3 | S | 0.0 | ||||||||
| 12:45 | 28.9 | 31.2 | 54.3 | 1020.3 | 11.6 | SE | 22.3 | SE | 0.0 | ||||||||
| 12:50 | 28.9 | 30.4 | 54.5 | 1020.3 | 6.5 | ESE | 19.6 | SE | 0.0 | ||||||||
| 12:55 | 28.9 | 31.0 | 54.0 | 1020.2 | 10.0 | SE | 22.3 | SSE | 0.0 | ||||||||
| 13:00 | 28.7 | 30.8 | 55.9 | 1020.3 | 12.7 | SSE | 22.3 | SSE | 0.0 | ||||||||
| 13:05 | 28.5 | 30.5 | 56.8 | 1020.1 | 9.3 | ESE | 19.6 | SE | 0.0 | ||||||||
| 13:10 | 28.3 | 29.6 | 57.4 | 1020.1 | 11.0 | SSE | 25.0 | SSE | 0.0 | ||||||||
| 13:15 | 28.0 | 29.1 | 58.5 | 1020.0 | 10.7 | SSE | 22.3 | S | 0.0 | ||||||||
| 13:20 | 27.8 | 28.9 | 59.4 | 1020.1 | 9.6 | SSE | 19.6 | SSE | 0.0 | ||||||||
| 13:25 | 27.8 | 29.2 | 60.1 | 1020.2 | 10.0 | SE | 25.0 | SE | 0.0 | ||||||||
| 13:30 | 28.3 | 30.5 | 58.8 | 1020.1 | 11.5 | SSE | 27.7 | ESE | 0.0 | ||||||||
| 13:35 | 28.6 | 30.2 | 57.6 | 1020.0 | 9.9 | SSE | 25.0 | ESE | 0.0 | ||||||||
| 13:40 | 28.2 | 29.0 | 58.3 | 1019.7 | 9.0 | SE | 19.6 | SE | 0.0 | ||||||||
| 13:45 | 27.7 | 28.3 | 59.8 | 1019.6 | 7.8 | SE | 16.9 | SSE | 0.0 | ||||||||
| 13:50 | 27.4 | 28.0 | 61.3 | 1019.6 | 12.1 | SE | 19.6 | S | 0.0 | ||||||||
| 13:55 | 27.2 | 28.1 | 62.4 | 1019.6 | 12.3 | SSE | 22.3 | SSE | 0.0 | ||||||||
| 14:00 | 27.5 | 29.4 | 62.1 | 1019.4 | 5.4 | S | 16.9 | S | 0.0 | ||||||||
| 14:05 | 28.4 | 31.7 | 59.4 | 1019.5 | 7.2 | S | 16.9 | S | 0.0 | ||||||||
| 14:10 | 28.8 | 31.0 | 57.0 | 1019.4 | 9.1 | S | 19.6 | SSW | 0.0 | ||||||||
| 14:15 | 28.3 | 29.7 | 58.4 | 1019.2 | 5.7 | S | 16.9 | SSE | 0.0 | ||||||||
| 14:20 | 28.5 | 30.5 | 57.3 | 1019.3 | 6.8 | SSE | 19.6 | S | 0.0 | ||||||||
| 14:25 | 28.6 | 31.7 | 57.4 | 1019.4 | 8.3 | SSE | 16.9 | SE | 0.0 | ||||||||
| 14:30 | 28.7 | 31.4 | 56.7 | 1019.5 | 10.4 | SSE | 25.0 | SE | 0.0 | ||||||||
| 14:35 | 28.4 | 29.8 | 57.0 | 1019.5 | 9.7 | SE | 22.3 | SE | 0.0 | ||||||||
| 14:40 | 27.8 | 28.8 | 58.1 | 1019.4 | 12.4 | SE | 22.3 | SSE | 0.0 | ||||||||
| 14:45 | 27.9 | 29.9 | 57.9 | 1019.3 | 12.2 | SE | 22.3 | SSE | 0.0 | ||||||||
| 14:50 | 28.1 | 30.1 | 57.8 | 1019.1 | 12.9 | SSE | 25.0 | SSE | 0.0 | ||||||||
| 14:55 | 28.1 | 29.6 | 58.1 | 1019.2 | 13.3 | SSE | 22.3 | SE | 0.0 | ||||||||
| 15:00 | 27.7 | 29.2 | 59.0 | 1019.3 | 12.1 | SE | 30.4 | ESE | 0.0 | ||||||||
| 15:05 | 27.6 | 28.6 | 59.4 | 1019.5 | 14.4 | SSE | 25.0 | SE | 0.0 | ||||||||
| Màxima | 30.4 | 34.5 | 90.7 | 1021.4 | 15.0 | SSE | 33.1 | ESE | 0.0 | ||||||||
| Mínima | 18.8 | 17.6 | 46.6 | 1019.1 | |||||||||||||
| Total | 0.0 | ||||||||||||||||